createdAt,value
2018-01-28T00:00:10.017Z,15.10
2018-01-28T00:02:38.666Z,16.67
2018-01-28T00:05:07.615Z,15.00
2018-01-28T00:07:36.832Z,13.47
2018-01-28T00:10:05.140Z,13.00
2018-01-28T00:12:33.798Z,14.67
2018-01-28T00:15:02.044Z,13.17
2018-01-28T00:34:46.293Z,12.33
2018-01-28T00:37:14.440Z,13.80
2018-01-28T00:39:44.250Z,13.33
2018-01-28T00:42:12.410Z,14.53
2018-01-28T00:44:41.817Z,14.97
2018-01-28T00:47:10.047Z,15.47
2018-01-28T00:49:40.016Z,14.33
2018-01-28T00:52:09.162Z,13.47
2018-01-28T00:54:37.958Z,14.80
2018-01-28T01:14:21.560Z,14.37
2018-01-28T01:16:50.612Z,14.80
2018-01-28T01:19:19.842Z,14.50
2018-01-28T01:21:48.151Z,14.30
2018-01-28T01:24:16.405Z,14.53
2018-01-28T01:26:45.363Z,11.47
2018-01-28T01:29:14.535Z,14.13
2018-01-28T01:31:43.074Z,14.40
2018-01-28T01:34:11.365Z,13.27
2018-01-28T01:53:57.223Z,12.67
2018-01-28T01:56:25.863Z,13.47
2018-01-28T01:58:54.554Z,12.67
2018-01-28T02:01:23.490Z,13.20
2018-01-28T02:03:53.184Z,12.87
2018-01-28T02:06:22.511Z,13.20
2018-01-28T02:08:51.507Z,12.40
2018-01-28T02:11:20.481Z,12.27
2018-01-28T02:13:50.920Z,13.10
2018-01-28T02:33:38.466Z,12.43
2018-01-28T02:36:07.635Z,12.40
2018-01-28T02:38:35.837Z,13.07
2018-01-28T02:41:05.003Z,14.20
2018-01-28T02:43:34.136Z,13.70
2018-01-28T02:46:03.209Z,12.60
2018-01-28T02:48:31.617Z,13.20
2018-01-28T02:51:00.382Z,14.60
2018-01-28T02:53:29.664Z,13.70
2018-01-28T03:13:14.826Z,13.43
2018-01-28T03:15:43.314Z,14.00
2018-01-28T03:18:11.755Z,13.83
2018-01-28T03:20:40.750Z,14.60
2018-01-28T03:23:10.923Z,13.53
2018-01-28T03:25:39.098Z,13.20
2018-01-28T03:28:07.873Z,14.83
2018-01-28T03:30:37.066Z,13.47
2018-01-28T03:33:05.803Z,13.90
2018-01-28T03:52:51.497Z,12.97
2018-01-28T03:55:21.404Z,12.40
2018-01-28T03:57:50.504Z,14.07
2018-01-28T04:00:19.261Z,14.27
2018-01-28T04:02:50.020Z,14.17
2018-01-28T04:05:18.600Z,13.60
2018-01-28T04:07:47.627Z,13.10
2018-01-28T04:10:15.962Z,14.77
2018-01-28T04:12:47.246Z,11.90
2018-01-28T04:32:32.972Z,13.43
2018-01-28T04:35:02.632Z,12.60
2018-01-28T04:37:30.886Z,14.07
2018-01-28T04:39:59.860Z,12.60
2018-01-28T04:42:29.026Z,13.47
2018-01-28T04:44:58.258Z,14.33
2018-01-28T04:47:27.251Z,14.60
2018-01-28T04:49:56.562Z,16.27
2018-01-28T04:52:25.805Z,14.20
2018-01-28T05:12:12.551Z,17.53
2018-01-28T05:14:41.150Z,15.10
2018-01-28T05:17:10.784Z,16.03
2018-01-28T05:19:39.821Z,13.77
2018-01-28T05:22:08.540Z,16.83
2018-01-28T05:24:36.816Z,17.10
2018-01-28T05:27:05.243Z,15.40
2018-01-28T05:29:33.957Z,16.40
2018-01-28T05:32:02.237Z,16.00
2018-01-28T05:51:48.046Z,16.83
2018-01-28T05:54:17.625Z,16.00
2018-01-28T05:56:47.628Z,17.50
2018-01-28T05:59:16.632Z,17.40
2018-01-28T06:01:46.165Z,16.43
2018-01-28T06:04:14.814Z,17.33
2018-01-28T06:06:43.010Z,15.40
2018-01-28T06:09:11.292Z,16.50
2018-01-28T06:11:41.642Z,17.27
2018-01-28T06:31:28.008Z,14.73
2018-01-28T06:33:56.409Z,17.40
2018-01-28T06:36:24.655Z,16.60
2018-01-28T06:38:54.375Z,15.17
2018-01-28T06:41:22.772Z,15.97
2018-01-28T06:43:51.446Z,15.90
2018-01-28T06:46:21.607Z,15.87
2018-01-28T06:48:50.779Z,16.77
2018-01-28T06:51:19.065Z,16.57
2018-01-28T07:11:03.663Z,16.67
2018-01-28T07:13:33.474Z,17.77
2018-01-28T07:16:01.455Z,15.80
2018-01-28T07:18:30.156Z,15.00
2018-01-28T07:20:58.773Z,17.13
2018-01-28T07:23:26.951Z,16.27
2018-01-28T07:25:56.366Z,16.80
2018-01-28T07:28:24.504Z,16.20
2018-01-28T07:30:52.916Z,15.70
2018-01-28T07:50:38.659Z,16.77
2018-01-28T07:53:07.369Z,15.90
2018-01-28T07:55:35.482Z,18.03
2018-01-28T07:58:04.340Z,16.83
2018-01-28T08:00:33.218Z,18.23
2018-01-28T08:03:02.531Z,17.00
2018-01-28T08:05:32.272Z,16.90
2018-01-28T08:08:01.383Z,17.00
2018-01-28T08:10:30.228Z,16.63
2018-01-28T08:30:16.774Z,15.63
2018-01-28T08:32:45.437Z,16.20
2018-01-28T08:35:14.862Z,16.87
2018-01-28T08:37:43.770Z,16.10
2018-01-28T08:40:12.812Z,19.33
2018-01-28T08:42:40.923Z,17.40
2018-01-28T08:45:10.086Z,16.03
2018-01-28T08:47:39.176Z,17.30
2018-01-28T09:07:25.749Z,15.73
2018-01-28T09:09:55.342Z,16.53
2018-01-28T09:12:24.033Z,15.90
2018-01-28T09:14:52.231Z,16.90
2018-01-28T09:17:21.511Z,15.30
2018-01-28T09:19:51.135Z,16.80
2018-01-28T09:22:20.328Z,13.43
2018-01-28T09:24:48.522Z,14.07
2018-01-28T09:27:17.413Z,14.73
2018-01-28T09:47:02.301Z,14.50
2018-01-28T09:49:32.578Z,16.33
2018-01-28T09:52:01.279Z,15.13
2018-01-28T09:54:29.643Z,15.50
2018-01-28T09:56:59.197Z,15.13
2018-01-28T09:59:28.139Z,15.17
2018-01-28T10:01:57.615Z,16.33
2018-01-28T10:04:28.385Z,15.50
2018-01-28T10:06:57.557Z,16.00
2018-01-28T10:26:45.015Z,14.67
2018-01-28T10:29:13.396Z,14.90
2018-01-28T10:31:42.676Z,15.10
2018-01-28T10:34:11.653Z,15.33
2018-01-28T10:36:41.522Z,15.40
2018-01-28T10:39:10.662Z,15.33
2018-01-28T10:41:39.855Z,15.23
2018-01-28T10:44:09.091Z,12.70
2018-01-28T10:46:37.722Z,17.07
2018-01-28T11:06:22.676Z,14.63
2018-01-28T11:08:51.733Z,13.87
2018-01-28T11:11:20.135Z,13.77
2018-01-28T11:13:48.804Z,15.10
2018-01-28T11:16:17.079Z,16.27
2018-01-28T11:18:46.020Z,15.90
2018-01-28T11:21:15.086Z,15.10
2018-01-28T11:23:43.819Z,15.50
2018-01-28T11:26:13.011Z,15.00
2018-01-28T11:46:00.363Z,11.80
2018-01-28T11:48:29.919Z,13.00
2018-01-28T11:50:59.865Z,13.10
2018-01-28T11:53:28.608Z,14.27
2018-01-28T11:55:57.337Z,13.83
2018-01-28T11:58:26.130Z,13.87
2018-01-28T12:00:54.556Z,14.50
2018-01-28T12:03:22.763Z,13.03
2018-01-28T12:05:50.907Z,13.10
2018-01-28T12:25:35.029Z,10.80
2018-01-28T12:28:03.704Z,12.77
2018-01-28T12:30:32.711Z,11.20
2018-01-28T12:33:01.432Z,12.90
2018-01-28T12:35:31.175Z,12.60
2018-01-28T12:37:59.679Z,12.53
2018-01-28T12:40:28.374Z,13.60
2018-01-28T12:42:57.621Z,10.87
2018-01-28T12:45:26.347Z,11.07
2018-01-28T13:05:10.966Z,12.63
2018-01-28T13:07:39.196Z,12.63
2018-01-28T13:10:07.590Z,13.10
2018-01-28T13:12:36.675Z,13.90
2018-01-28T13:15:05.216Z,14.73
2018-01-28T13:17:34.622Z,14.70
2018-01-28T13:20:03.854Z,15.30
2018-01-28T13:22:32.999Z,14.27
2018-01-28T13:25:01.615Z,14.03
2018-01-28T13:44:47.361Z,15.10
2018-01-28T13:47:15.870Z,14.10
2018-01-28T13:49:45.275Z,13.67
2018-01-28T13:52:15.397Z,13.33
2018-01-28T13:54:43.580Z,14.10
2018-01-28T13:57:13.886Z,13.10
2018-01-28T13:59:43.173Z,12.63
2018-01-28T14:02:11.704Z,14.33
2018-01-28T14:04:39.861Z,15.40
2018-01-28T14:24:24.521Z,14.27
2018-01-28T14:26:53.642Z,13.47
2018-01-28T14:29:23.137Z,11.40
2018-01-28T14:31:52.487Z,13.30
2018-01-28T14:34:20.724Z,12.50
2018-01-28T14:36:49.783Z,12.67
2018-01-28T14:39:19.105Z,13.53
2018-01-28T14:41:48.663Z,12.93
2018-01-28T14:44:18.042Z,13.13
2018-01-28T15:04:03.553Z,12.03
2018-01-28T15:06:33.445Z,11.80
2018-01-28T15:09:02.548Z,11.07
2018-01-28T15:11:30.843Z,11.50
2018-01-28T15:13:59.261Z,11.37
2018-01-28T15:16:28.867Z,11.07
2018-01-28T15:18:57.516Z,10.90
2018-01-28T15:21:26.044Z,11.93
2018-01-28T15:23:55.725Z,12.93
2018-01-28T15:43:40.175Z,11.60
2018-01-28T15:46:08.621Z,11.80
2018-01-28T15:48:37.073Z,12.10
2018-01-28T15:51:06.266Z,11.00
2018-01-28T15:53:34.880Z,13.20
2018-01-28T15:56:07.607Z,11.53
2018-01-28T15:58:36.351Z,12.63
2018-01-28T16:01:05.034Z,12.30
2018-01-28T16:03:34.533Z,12.30
2018-01-28T16:23:19.166Z,12.40
2018-01-28T16:25:48.404Z,11.63
2018-01-28T16:28:16.868Z,11.03
2018-01-28T16:30:45.157Z,12.40
2018-01-28T16:33:13.852Z,10.77
2018-01-28T16:35:42.664Z,11.37
2018-01-28T16:38:11.269Z,10.70
2018-01-28T16:40:40.199Z,12.17
2018-01-28T16:43:09.402Z,11.40
2018-01-28T17:02:54.437Z,12.53
2018-01-28T17:05:23.101Z,11.50
2018-01-28T17:07:52.996Z,11.33
2018-01-28T17:10:21.662Z,12.97
2018-01-28T17:12:51.659Z,14.07
2018-01-28T17:15:20.582Z,11.30
2018-01-28T17:17:49.283Z,11.30
2018-01-28T17:20:17.570Z,12.50
2018-01-28T17:22:46.060Z,12.13
2018-01-28T17:42:32.739Z,13.60
2018-01-28T17:45:02.870Z,11.80
2018-01-28T17:47:31.960Z,11.57
2018-01-28T17:50:01.585Z,11.37
2018-01-28T17:52:30.689Z,11.73
2018-01-28T17:54:58.848Z,11.87
2018-01-28T17:57:27.561Z,11.60
2018-01-28T17:59:56.533Z,12.40
2018-01-28T18:02:26.228Z,10.77
2018-01-28T18:22:10.852Z,12.73
2018-01-28T18:24:39.236Z,11.63
2018-01-28T18:27:08.420Z,12.30
2018-01-28T18:29:37.023Z,12.67
2018-01-28T18:32:06.039Z,11.40
2018-01-28T18:34:35.099Z,12.03
2018-01-28T18:37:03.279Z,11.10
2018-01-28T18:39:32.816Z,11.50
2018-01-28T18:42:01.995Z,10.60
2018-01-28T19:01:46.818Z,12.53
2018-01-28T19:04:15.269Z,13.20
2018-01-28T19:06:43.830Z,13.73
2018-01-28T19:09:13.337Z,13.27
2018-01-28T19:11:42.325Z,12.97
2018-01-28T19:14:11.773Z,13.17
2018-01-28T19:16:40.207Z,13.50
2018-01-28T19:19:10.166Z,13.57
2018-01-28T19:21:39.157Z,14.23
2018-01-28T19:41:24.050Z,12.53
2018-01-28T19:43:52.802Z,13.27
2018-01-28T19:46:22.210Z,13.00
2018-01-28T19:48:50.350Z,11.10
2018-01-28T19:51:19.752Z,11.50
2018-01-28T19:53:48.397Z,13.90
2018-01-28T19:56:17.480Z,12.73
2018-01-28T19:58:46.348Z,12.50
2018-01-28T20:01:14.995Z,12.60
2018-01-28T20:21:07.651Z,11.50
2018-01-28T20:23:36.855Z,13.43
2018-01-28T20:26:05.777Z,13.23
2018-01-28T20:28:33.944Z,12.53
2018-01-28T20:31:02.610Z,12.77
2018-01-28T20:33:31.216Z,11.90
2018-01-28T20:35:59.630Z,13.70
2018-01-28T20:38:28.487Z,13.77
2018-01-28T20:40:57.559Z,13.97
2018-01-28T21:00:42.737Z,13.23
2018-01-28T21:03:11.144Z,14.13
2018-01-28T21:05:40.110Z,13.27
2018-01-28T21:08:09.390Z,14.20
2018-01-28T21:10:39.126Z,14.40
2018-01-28T21:13:07.521Z,12.67
2018-01-28T21:15:37.678Z,13.10
2018-01-28T21:18:06.314Z,14.13
2018-01-28T21:20:35.725Z,13.80
2018-01-28T21:40:22.302Z,13.97
2018-01-28T21:42:51.033Z,13.03
2018-01-28T21:45:20.953Z,14.07
2018-01-28T21:47:49.667Z,12.27
2018-01-28T21:50:19.173Z,13.60
2018-01-28T21:52:47.280Z,11.90
2018-01-28T21:55:16.723Z,11.90
2018-01-28T21:57:45.592Z,12.10
2018-01-28T22:00:14.353Z,12.80
2018-01-28T22:20:00.330Z,12.83
2018-01-28T22:22:29.018Z,13.50
2018-01-28T22:24:57.499Z,14.90
2018-01-28T22:27:26.006Z,13.90
2018-01-28T22:29:54.545Z,13.60
2018-01-28T22:32:22.728Z,14.07
2018-01-28T22:34:51.355Z,13.53
2018-01-28T22:37:20.606Z,13.67
2018-01-28T22:39:49.508Z,13.47
2018-01-28T22:59:36.216Z,14.23
2018-01-28T23:02:05.346Z,14.73
2018-01-28T23:04:33.555Z,14.27
2018-01-28T23:07:02.347Z,13.00
2018-01-28T23:09:31.046Z,14.17
2018-01-28T23:11:59.753Z,13.63
2018-01-28T23:14:29.895Z,14.20
2018-01-28T23:16:58.562Z,15.00
2018-01-28T23:19:26.727Z,14.97
2018-01-28T23:39:12.844Z,13.87
2018-01-28T23:41:41.044Z,14.60
2018-01-28T23:44:09.219Z,13.23
2018-01-28T23:46:38.216Z,14.10
2018-01-28T23:49:07.389Z,15.17
2018-01-28T23:51:36.096Z,14.27
2018-01-28T23:54:05.107Z,14.17
2018-01-28T23:56:34.491Z,12.60
2018-01-28T23:59:02.610Z,13.67
